createdAt,value
2018-07-02T00:01:41.886Z,64.07
2018-07-02T00:04:13.987Z,64.20
2018-07-02T00:06:57.491Z,64.72
2018-07-02T00:09:29.615Z,64.37
2018-07-02T00:12:03.566Z,64.49
2018-07-02T00:14:35.737Z,63.93
2018-07-02T00:17:07.807Z,64.03
2018-07-02T00:19:39.952Z,63.69
2018-07-02T00:22:12.576Z,63.86
2018-07-02T00:24:44.703Z,63.32
2018-07-02T00:27:16.834Z,62.59
2018-07-02T00:29:48.938Z,63.20
2018-07-02T00:32:22.018Z,62.47
2018-07-02T00:34:54.085Z,63.47
2018-07-02T00:37:26.148Z,63.70
2018-07-02T00:39:58.241Z,63.90
2018-07-02T00:42:30.344Z,64.81
2018-07-02T00:45:02.488Z,65.44
2018-07-02T00:47:34.603Z,65.80
2018-07-02T00:50:06.784Z,65.69
2018-07-02T00:52:38.893Z,66.09
2018-07-02T00:55:11.024Z,66.06
2018-07-02T00:57:43.150Z,66.42
2018-07-02T01:00:16.191Z,66.38
2018-07-02T01:02:48.359Z,66.33
2018-07-02T01:05:20.445Z,65.69
2018-07-02T01:07:52.532Z,66.08
2018-07-02T01:10:24.603Z,66.40
2018-07-02T01:12:56.735Z,66.45
2018-07-02T01:15:28.787Z,67.51
2018-07-02T01:18:00.905Z,68.41
2018-07-02T01:20:33.058Z,69.77
2018-07-02T01:23:05.335Z,70.25
2018-07-02T01:25:37.432Z,70.88
2018-07-02T01:28:09.543Z,71.61
2018-07-02T01:30:41.610Z,72.33
2018-07-02T01:33:13.696Z,73.07
2018-07-02T01:35:45.890Z,74.10
2018-07-02T01:38:17.967Z,74.60
2018-07-02T01:40:50.066Z,74.45
2018-07-02T01:43:22.247Z,73.48
2018-07-02T01:45:54.342Z,72.81
2018-07-02T01:48:26.468Z,71.84
2018-07-02T01:50:58.559Z,73.00
2018-07-02T01:53:30.667Z,73.34
2018-07-02T01:56:02.803Z,71.96
2018-07-02T01:58:34.892Z,71.55
2018-07-02T02:01:06.985Z,72.43
2018-07-02T02:03:39.068Z,74.47
2018-07-02T02:06:11.219Z,75.65
2018-07-02T02:08:43.356Z,75.50
2018-07-02T02:11:15.442Z,75.47
2018-07-02T02:13:47.540Z,75.85
2018-07-02T02:16:19.698Z,75.71
2018-07-02T02:18:51.924Z,75.59
2018-07-02T02:21:24.027Z,76.24
2018-07-02T02:23:56.204Z,77.30
2018-07-02T02:26:28.389Z,78.36
2018-07-02T02:29:00.540Z,79.61
2018-07-02T02:31:32.672Z,80.18
2018-07-02T02:34:04.782Z,80.79
2018-07-02T02:36:36.895Z,80.25
2018-07-02T02:39:09.680Z,80.80
2018-07-02T02:41:41.816Z,81.60
2018-07-02T02:44:13.960Z,82.87
2018-07-02T02:46:46.100Z,83.58
2018-07-02T02:49:18.208Z,83.77
2018-07-02T02:51:50.259Z,83.64
2018-07-02T02:54:22.345Z,82.06
2018-07-02T02:56:54.500Z,81.72
2018-07-02T02:59:26.615Z,81.47
2018-07-02T03:01:58.714Z,81.41
2018-07-02T03:04:30.803Z,80.71
2018-07-02T03:07:03.523Z,80.97
2018-07-02T03:09:35.847Z,79.49
2018-07-02T03:12:07.908Z,80.21
2018-07-02T03:14:40.045Z,79.28
2018-07-02T03:17:12.108Z,79.47
2018-07-02T03:19:44.215Z,78.07
2018-07-02T03:22:16.316Z,74.95
2018-07-02T03:24:48.425Z,74.29
2018-07-02T03:27:20.579Z,73.95
2018-07-02T03:29:52.732Z,74.97
2018-07-02T03:32:24.833Z,75.20
2018-07-02T03:34:56.930Z,74.64
2018-07-02T03:37:29.026Z,74.63
2018-07-02T03:40:01.108Z,73.23
2018-07-02T03:42:33.207Z,72.62
2018-07-02T03:45:05.357Z,72.68
2018-07-02T03:47:37.486Z,74.19
2018-07-02T03:50:09.590Z,74.40
2018-07-02T03:52:41.734Z,74.71
2018-07-02T03:55:13.878Z,74.22
2018-07-02T03:57:46.095Z,74.90
2018-07-02T04:00:18.248Z,73.92
2018-07-02T04:02:50.339Z,73.78
2018-07-02T04:05:22.418Z,74.13
2018-07-02T04:07:54.515Z,74.04
2018-07-02T04:10:26.607Z,74.68
2018-07-02T04:12:58.799Z,73.53
2018-07-02T04:15:30.942Z,72.53
2018-07-02T04:18:03.050Z,71.45
2018-07-02T04:20:35.117Z,70.40
2018-07-02T04:23:07.206Z,70.77
2018-07-02T04:25:39.317Z,70.75
2018-07-02T04:28:11.491Z,68.78
2018-07-02T04:30:43.630Z,61.22
2018-07-02T04:33:15.744Z,58.96
2018-07-02T04:35:47.899Z,56.96
2018-07-02T04:38:19.987Z,56.43
2018-07-02T04:40:52.099Z,53.27
2018-07-02T04:43:24.182Z,50.20
2018-07-02T04:45:56.314Z,46.33
2018-07-02T04:48:28.413Z,47.20
2018-07-02T04:51:00.543Z,44.96
2018-07-02T04:53:32.650Z,43.58
2018-07-02T04:56:04.890Z,42.49
2018-07-02T04:58:37.010Z,41.84
2018-07-02T05:01:09.672Z,41.46
2018-07-02T05:03:41.757Z,42.77
2018-07-02T05:06:14.161Z,42.21
2018-07-02T05:08:46.255Z,41.60
2018-07-02T05:11:18.338Z,43.10
2018-07-02T05:13:50.457Z,42.28
2018-07-02T05:16:22.569Z,41.11
2018-07-02T05:18:54.695Z,41.31
2018-07-02T05:21:26.800Z,40.91
2018-07-02T05:23:58.879Z,38.32
2018-07-02T05:26:31.137Z,38.59
2018-07-02T05:29:03.280Z,39.80
2018-07-02T05:31:35.480Z,36.78
2018-07-02T05:34:07.604Z,35.20
2018-07-02T05:36:39.717Z,35.13
2018-07-02T05:39:11.843Z,34.05
2018-07-02T05:41:43.939Z,34.98
2018-07-02T05:44:16.023Z,35.64
2018-07-02T05:46:48.123Z,35.00
2018-07-02T05:49:20.363Z,35.72
2018-07-02T05:51:52.500Z,34.11
2018-07-02T05:54:24.710Z,32.92
2018-07-02T05:56:57.786Z,32.17
2018-07-02T05:59:29.962Z,32.05
2018-07-02T06:02:02.120Z,33.30
2018-07-02T06:04:34.321Z,33.21
2018-07-02T06:07:06.456Z,34.46
2018-07-02T06:09:38.563Z,34.23
2018-07-02T06:12:10.689Z,33.93
2018-07-02T06:14:42.788Z,33.63
2018-07-02T06:17:14.959Z,32.60
2018-07-02T06:19:47.134Z,32.81
2018-07-02T06:22:19.264Z,33.80
2018-07-02T06:24:51.418Z,31.14
2018-07-02T06:27:23.516Z,30.13
2018-07-02T06:29:55.607Z,30.21
2018-07-02T06:32:27.732Z,28.64
2018-07-02T06:35:00.100Z,28.88
2018-07-02T06:37:32.191Z,30.81
2018-07-02T06:40:04.391Z,30.23
2018-07-02T06:42:36.575Z,29.09
2018-07-02T06:45:08.764Z,28.40
2018-07-02T06:47:40.972Z,27.97
2018-07-02T06:50:13.132Z,28.48
2018-07-02T06:52:45.275Z,28.96
2018-07-02T06:55:17.409Z,26.71
2018-07-02T06:57:49.529Z,28.09
2018-07-02T07:00:21.604Z,26.21
2018-07-02T07:02:53.736Z,27.92
2018-07-02T07:05:25.924Z,26.19
2018-07-02T07:07:58.037Z,25.55
2018-07-02T07:10:30.164Z,25.70
2018-07-02T07:13:02.342Z,25.42
2018-07-02T07:15:34.517Z,23.59
2018-07-02T07:18:06.663Z,24.01
2018-07-02T07:20:38.803Z,21.89
2018-07-02T07:23:10.938Z,21.76
2018-07-02T07:25:44.134Z,22.27
2018-07-02T07:28:16.270Z,21.14
2018-07-02T07:30:48.387Z,20.18
2018-07-02T07:33:20.508Z,20.97
2018-07-02T07:35:52.691Z,20.03
2018-07-02T07:38:24.830Z,20.75
2018-07-02T07:40:56.895Z,20.49
2018-07-02T07:43:29.019Z,20.51
2018-07-02T07:46:01.182Z,20.45
2018-07-02T07:48:33.299Z,19.03
2018-07-02T07:51:05.428Z,20.22
2018-07-02T07:53:37.556Z,19.28
2018-07-02T07:56:09.699Z,19.50
2018-07-02T07:58:41.830Z,18.95
2018-07-02T08:01:13.965Z,19.02
2018-07-02T08:03:46.533Z,21.34
2018-07-02T08:06:18.675Z,20.96
2018-07-02T08:08:51.619Z,19.56
2018-07-02T08:11:23.827Z,19.68
2018-07-02T08:13:55.956Z,19.24
2018-07-02T08:16:28.099Z,20.70
2018-07-02T08:19:00.257Z,21.41
2018-07-02T08:21:32.326Z,20.68
2018-07-02T08:24:04.471Z,19.01
2018-07-02T08:26:36.595Z,20.06
2018-07-02T08:29:08.719Z,19.18
2018-07-02T08:31:40.827Z,20.76
2018-07-02T08:34:12.977Z,21.79
2018-07-02T08:36:45.205Z,21.25
2018-07-02T08:39:17.356Z,20.39
2018-07-02T08:41:49.498Z,19.58
2018-07-02T08:44:21.596Z,19.77
2018-07-02T08:46:53.712Z,19.60
2018-07-02T08:49:25.839Z,19.38
2018-07-02T08:51:58.036Z,19.80
2018-07-02T08:54:30.204Z,20.80
2018-07-02T08:57:02.332Z,19.25
2018-07-02T08:59:34.480Z,21.25
2018-07-02T09:02:06.655Z,21.37
2018-07-02T09:04:39.000Z,21.18
2018-07-02T09:07:12.056Z,20.81
2018-07-02T09:09:44.123Z,21.03
2018-07-02T09:12:16.147Z,21.19
2018-07-02T09:14:48.349Z,22.94
2018-07-02T09:17:20.342Z,23.19
2018-07-02T09:19:52.485Z,20.96
2018-07-02T09:22:24.558Z,20.60
2018-07-02T09:24:56.775Z,22.33
2018-07-02T09:27:28.884Z,22.81
2018-07-02T09:30:01.086Z,23.82
2018-07-02T09:32:33.099Z,23.64
2018-07-02T09:35:05.280Z,22.91
2018-07-02T09:37:37.404Z,22.06
2018-07-02T09:40:09.519Z,21.87
2018-07-02T09:42:42.099Z,21.42
2018-07-02T09:45:14.348Z,22.09
2018-07-02T09:47:46.496Z,22.06
2018-07-02T09:50:18.640Z,23.76
2018-07-02T09:52:50.771Z,22.56
2018-07-02T09:55:22.856Z,23.22
2018-07-02T09:57:55.234Z,24.02
2018-07-02T10:00:27.388Z,22.99
2018-07-02T10:02:59.522Z,23.55
2018-07-02T10:05:31.727Z,23.03
2018-07-02T10:08:03.829Z,22.84
2018-07-02T10:10:36.009Z,23.36
2018-07-02T10:13:08.124Z,22.85
2018-07-02T10:15:40.268Z,21.59
2018-07-02T10:18:12.378Z,24.35
2018-07-02T10:20:44.506Z,25.51
2018-07-02T10:23:16.627Z,24.10
2018-07-02T10:25:48.823Z,23.56
2018-07-02T10:28:21.014Z,25.69
2018-07-02T10:30:53.146Z,22.55
2018-07-02T10:33:25.204Z,23.88
2018-07-02T10:35:57.366Z,23.22
2018-07-02T10:38:29.453Z,21.31
2018-07-02T10:41:01.593Z,21.20
2018-07-02T10:43:33.672Z,21.18
2018-07-02T10:46:05.827Z,21.90
2018-07-02T10:48:37.932Z,23.76
2018-07-02T10:51:10.079Z,23.36
2018-07-02T10:53:42.247Z,21.97
2018-07-02T10:56:14.372Z,21.56
2018-07-02T10:58:46.486Z,21.50
2018-07-02T11:01:18.648Z,21.89
2018-07-02T11:03:50.702Z,21.40
2018-07-02T11:06:22.793Z,19.89
2018-07-02T11:08:54.897Z,21.43
2018-07-02T11:11:27.036Z,21.45
2018-07-02T11:13:59.175Z,22.41
2018-07-02T11:16:31.266Z,22.17
2018-07-02T11:19:03.605Z,21.86
2018-07-02T11:21:35.700Z,22.31
2018-07-02T11:24:07.790Z,22.24
2018-07-02T11:26:39.950Z,22.08
2018-07-02T11:29:12.015Z,21.92
2018-07-02T11:31:44.167Z,22.12
2018-07-02T11:34:16.288Z,22.91
2018-07-02T11:36:48.421Z,21.48
2018-07-02T11:39:20.475Z,22.57
2018-07-02T11:41:52.626Z,19.93
2018-07-02T11:44:24.719Z,18.80
2018-07-02T11:46:56.864Z,18.55
2018-07-02T11:49:29.141Z,20.58
2018-07-02T11:52:01.261Z,20.34
2018-07-02T11:54:33.703Z,20.47
2018-07-02T11:57:05.776Z,20.18
2018-07-02T11:59:37.949Z,21.35
2018-07-02T12:02:10.113Z,19.12
2018-07-02T12:04:42.240Z,19.57
2018-07-02T12:07:14.371Z,19.16
2018-07-02T12:09:46.508Z,19.33
2018-07-02T12:12:18.643Z,19.71
2018-07-02T12:14:50.731Z,20.46
2018-07-02T12:17:22.875Z,20.12
2018-07-02T12:19:55.043Z,20.22
2018-07-02T12:22:27.184Z,19.53
2018-07-02T12:24:59.260Z,17.65
2018-07-02T12:27:31.398Z,19.42
2018-07-02T12:30:03.912Z,17.01
2018-07-02T12:32:36.111Z,16.97
2018-07-02T12:35:08.248Z,17.50
2018-07-02T12:37:40.354Z,16.43
2018-07-02T12:40:12.463Z,18.41
2018-07-02T12:42:44.566Z,17.96
2018-07-02T12:45:20.620Z,18.48
2018-07-02T12:47:54.069Z,17.90
2018-07-02T12:50:26.185Z,18.86
2018-07-02T12:52:58.263Z,18.19
2018-07-02T12:55:30.390Z,17.94
2018-07-02T12:58:02.508Z,18.15
2018-07-02T13:00:34.605Z,18.59
2018-07-02T13:03:06.741Z,17.32
2018-07-02T13:05:38.869Z,16.31
2018-07-02T13:08:11.037Z,15.29
2018-07-02T13:10:43.201Z,16.18
2018-07-02T13:13:15.295Z,16.70
2018-07-02T13:15:47.461Z,16.27
2018-07-02T13:18:19.559Z,17.52
2018-07-02T13:20:51.712Z,16.93
2018-07-02T13:23:23.812Z,17.36
2018-07-02T13:25:55.963Z,16.62
2018-07-02T13:28:28.084Z,17.27
2018-07-02T13:31:00.222Z,18.46
2018-07-02T13:33:32.364Z,18.73
2018-07-02T13:36:04.537Z,17.39
2018-07-02T13:38:36.669Z,19.76
2018-07-02T13:41:08.907Z,17.59
2018-07-02T13:43:41.008Z,18.30
2018-07-02T13:46:13.151Z,17.86
2018-07-02T13:48:45.321Z,17.54
2018-07-02T13:51:17.581Z,17.02
2018-07-02T13:53:49.636Z,17.89
2018-07-02T13:56:21.779Z,16.89
2018-07-02T13:58:54.168Z,17.01
2018-07-02T14:01:26.324Z,17.48
2018-07-02T14:03:58.479Z,16.92
2018-07-02T14:06:32.871Z,15.50
2018-07-02T14:09:07.629Z,15.94
2018-07-02T14:11:40.685Z,18.16
2018-07-02T14:14:13.096Z,18.13
2018-07-02T14:16:45.160Z,18.35
2018-07-02T14:19:17.355Z,19.40
2018-07-02T14:21:49.476Z,17.33
2018-07-02T14:24:21.608Z,17.67
2018-07-02T14:26:53.784Z,17.30
2018-07-02T14:29:25.848Z,19.31
2018-07-02T14:31:57.951Z,17.71
2018-07-02T14:34:30.021Z,19.33
2018-07-02T14:37:02.149Z,18.62
2018-07-02T14:39:34.399Z,18.07
2018-07-02T14:42:06.394Z,17.26
2018-07-02T14:44:38.656Z,17.57
2018-07-02T14:47:10.704Z,16.63
2018-07-02T14:49:42.824Z,17.83
2018-07-02T14:52:14.943Z,17.90
2018-07-02T14:54:47.111Z,18.12
2018-07-02T14:57:19.212Z,17.84
2018-07-02T14:59:51.315Z,18.90
2018-07-02T15:02:24.479Z,16.73
2018-07-02T15:04:56.706Z,17.69
2018-07-02T15:07:28.815Z,15.39
2018-07-02T15:10:00.917Z,15.79
2018-07-02T15:12:33.079Z,14.63
2018-07-02T15:15:05.406Z,17.08
2018-07-02T15:17:37.572Z,15.25
2018-07-02T15:20:10.117Z,14.79
2018-07-02T15:22:42.232Z,16.34
2018-07-02T15:25:14.357Z,17.14
2018-07-02T15:27:46.488Z,17.31
2018-07-02T15:30:18.829Z,16.07
2018-07-02T15:32:51.015Z,16.91
2018-07-02T15:35:23.082Z,15.50
2018-07-02T15:37:55.243Z,16.74
2018-07-02T15:40:27.396Z,15.03
2018-07-02T15:42:59.535Z,15.45
2018-07-02T15:45:31.737Z,16.99
2018-07-02T15:48:03.936Z,16.91
2018-07-02T15:50:36.097Z,17.38
2018-07-02T15:53:08.267Z,17.35
2018-07-02T15:55:40.440Z,16.49
2018-07-02T15:58:12.604Z,17.67
2018-07-02T16:00:44.758Z,17.54
2018-07-02T16:03:16.840Z,16.19
2018-07-02T16:05:48.976Z,17.24
2018-07-02T16:08:21.172Z,17.23
2018-07-02T16:10:53.313Z,15.10
2018-07-02T16:13:25.658Z,16.48
2018-07-02T16:15:57.636Z,16.58
2018-07-02T16:18:29.735Z,16.71
2018-07-02T16:21:01.844Z,18.75
2018-07-02T16:23:34.006Z,18.52
2018-07-02T16:26:06.102Z,18.38
2018-07-02T16:28:38.242Z,18.46
2018-07-02T16:31:10.335Z,18.98
2018-07-02T16:33:42.458Z,16.51
2018-07-02T16:36:14.569Z,18.36
2018-07-02T16:38:46.668Z,16.55
2018-07-02T16:41:18.748Z,18.12
2018-07-02T16:43:50.991Z,19.24
2018-07-02T16:46:23.108Z,17.86
2018-07-02T16:48:55.203Z,19.17
2018-07-02T16:51:27.316Z,18.92
2018-07-02T16:53:59.472Z,19.19
2018-07-02T16:56:32.372Z,19.07
2018-07-02T16:59:04.629Z,18.98
2018-07-02T17:01:36.767Z,19.21
2018-07-02T17:04:08.927Z,20.72
2018-07-02T17:06:41.100Z,21.40
2018-07-02T17:09:13.231Z,22.17
2018-07-02T17:11:45.437Z,22.74
2018-07-02T17:14:17.583Z,23.17
2018-07-02T17:16:49.696Z,22.67
2018-07-02T17:19:21.824Z,23.56
2018-07-02T17:21:54.024Z,25.04
2018-07-02T17:24:26.123Z,24.97
2018-07-02T17:26:58.229Z,25.88
2018-07-02T17:29:30.327Z,25.75
2018-07-02T17:32:02.495Z,26.46
2018-07-02T17:34:34.595Z,25.78
2018-07-02T17:37:06.704Z,26.14
2018-07-02T17:39:38.787Z,26.06
2018-07-02T17:42:10.863Z,26.26
2018-07-02T17:44:42.973Z,25.41
2018-07-02T17:47:15.106Z,26.62
2018-07-02T17:49:47.212Z,26.19
2018-07-02T17:52:19.335Z,26.67
2018-07-02T17:54:51.408Z,27.56
2018-07-02T17:57:23.476Z,26.79
2018-07-02T17:59:55.555Z,26.06
2018-07-02T18:02:27.647Z,25.91
2018-07-02T18:04:59.719Z,27.24
2018-07-02T18:07:31.750Z,27.07
2018-07-02T18:10:04.218Z,26.98
2018-07-02T18:12:36.304Z,27.75
2018-07-02T18:15:08.433Z,27.24
2018-07-02T18:17:40.511Z,27.84
2018-07-02T18:20:12.574Z,28.48
2018-07-02T18:22:44.664Z,28.79
2018-07-02T18:25:16.790Z,28.52
2018-07-02T18:27:48.886Z,28.24
2018-07-02T18:30:20.998Z,28.25
2018-07-02T18:32:53.088Z,28.77
2018-07-02T18:35:25.212Z,29.45
2018-07-02T18:37:57.438Z,29.65
2018-07-02T18:40:29.507Z,30.17
2018-07-02T18:43:01.631Z,31.17
2018-07-02T18:45:33.742Z,31.38
2018-07-02T18:48:05.913Z,31.13
2018-07-02T18:50:38.045Z,31.44
2018-07-02T18:53:10.175Z,31.40
2018-07-02T18:55:42.308Z,32.44
2018-07-02T18:58:14.500Z,31.54
2018-07-02T19:00:46.654Z,31.18
2018-07-02T19:03:18.733Z,32.14
2018-07-02T19:05:50.829Z,32.76
2018-07-02T19:09:26.463Z,33.95
2018-07-02T19:11:58.551Z,34.64
2018-07-02T19:14:30.685Z,35.13
2018-07-02T19:17:02.812Z,35.12
2018-07-02T19:19:34.864Z,36.00
2018-07-02T19:22:06.948Z,37.29
2018-07-02T19:24:39.059Z,37.70
2018-07-02T19:27:11.123Z,38.36
2018-07-02T19:29:43.250Z,39.14
2018-07-02T19:32:15.324Z,40.47
2018-07-02T19:34:48.439Z,40.32
2018-07-02T19:37:20.535Z,40.62
2018-07-02T19:39:52.727Z,41.12
2018-07-02T19:42:24.845Z,41.84
2018-07-02T19:44:56.941Z,42.03
2018-07-02T19:47:29.028Z,41.95
2018-07-02T19:50:01.103Z,43.87
2018-07-02T19:52:33.287Z,44.30
2018-07-02T19:55:05.707Z,44.28
2018-07-02T19:57:37.751Z,44.03
2018-07-02T20:00:09.887Z,44.01
2018-07-02T20:02:41.992Z,45.57
2018-07-02T20:05:14.053Z,45.95
2018-07-02T20:07:46.155Z,45.65
2018-07-02T20:10:18.267Z,46.28
2018-07-02T20:12:51.435Z,46.44
2018-07-02T20:15:23.535Z,47.26
2018-07-02T20:17:55.646Z,47.22
2018-07-02T20:20:27.816Z,47.93
2018-07-02T20:22:59.931Z,48.62
2018-07-02T20:25:33.021Z,48.24
2018-07-02T20:28:05.151Z,49.63
2018-07-02T20:30:37.293Z,50.77
2018-07-02T20:33:10.384Z,50.80
2018-07-02T20:35:42.567Z,51.22
2018-07-02T20:38:14.644Z,50.26
2018-07-02T20:40:46.715Z,50.66
2018-07-02T20:43:18.783Z,51.43
2018-07-02T20:45:50.900Z,50.68
2018-07-02T20:48:22.995Z,52.42
2018-07-02T20:50:55.092Z,52.76
2018-07-02T20:53:27.229Z,52.45
2018-07-02T20:55:59.305Z,51.52
2018-07-02T20:58:31.403Z,52.39
2018-07-02T21:01:03.557Z,51.93
2018-07-02T21:03:35.655Z,53.19
2018-07-02T21:06:07.804Z,53.76
2018-07-02T21:08:39.890Z,53.42
2018-07-02T21:11:11.983Z,54.19
2018-07-02T21:13:44.112Z,54.93
2018-07-02T21:16:16.193Z,55.19
2018-07-02T21:18:48.231Z,56.62
2018-07-02T21:21:20.412Z,57.35
2018-07-02T21:23:52.539Z,58.47
2018-07-02T21:26:24.776Z,59.46
2018-07-02T21:28:56.879Z,59.72
2018-07-02T21:31:29.011Z,60.40
2018-07-02T21:34:01.083Z,61.53
2018-07-02T21:36:33.209Z,62.08
2018-07-02T21:39:08.114Z,60.95
2018-07-02T21:41:40.793Z,61.63
2018-07-02T21:44:12.843Z,59.04
2018-07-02T21:46:44.920Z,58.46
2018-07-02T21:49:17.003Z,59.21
2018-07-02T21:51:49.115Z,60.24
2018-07-02T21:54:21.196Z,61.14
2018-07-02T21:56:53.262Z,60.31
2018-07-02T21:59:25.348Z,62.34
2018-07-02T22:01:57.492Z,62.68
2018-07-02T22:04:29.906Z,63.54
2018-07-02T22:07:02.017Z,63.49
2018-07-02T22:09:34.095Z,62.84
2018-07-02T22:12:06.231Z,62.73
2018-07-02T22:14:38.351Z,62.94
2018-07-02T22:17:10.439Z,63.09
2018-07-02T22:19:42.524Z,63.18
2018-07-02T22:22:14.661Z,62.48
2018-07-02T22:24:46.741Z,62.85
2018-07-02T22:27:18.851Z,62.88
2018-07-02T22:29:51.112Z,62.70
2018-07-02T22:32:23.238Z,61.56
2018-07-02T22:34:55.307Z,61.95
2018-07-02T22:37:27.409Z,62.13
2018-07-02T22:39:59.502Z,62.83
2018-07-02T22:42:31.642Z,62.85
2018-07-02T22:45:03.829Z,64.09
2018-07-02T22:47:35.970Z,64.73
2018-07-02T22:50:08.011Z,64.79
2018-07-02T22:52:40.100Z,65.54
2018-07-02T22:55:12.199Z,65.69
2018-07-02T22:57:44.267Z,66.46
2018-07-02T23:00:16.346Z,65.90
2018-07-02T23:02:48.514Z,66.67
2018-07-02T23:05:20.634Z,65.58
2018-07-02T23:07:52.818Z,65.85
2018-07-02T23:10:24.849Z,65.83
2018-07-02T23:12:56.942Z,67.24
2018-07-02T23:15:28.995Z,67.90
2018-07-02T23:18:01.302Z,68.53
2018-07-02T23:20:33.352Z,68.84
2018-07-02T23:23:05.436Z,69.73
2018-07-02T23:25:37.534Z,69.37
2018-07-02T23:28:09.589Z,69.79
2018-07-02T23:30:41.700Z,70.27
2018-07-02T23:33:13.743Z,70.85
2018-07-02T23:35:46.111Z,69.64
2018-07-02T23:38:18.175Z,69.71
2018-07-02T23:40:50.223Z,70.33
2018-07-02T23:43:22.326Z,71.35
2018-07-02T23:45:54.365Z,71.61
2018-07-02T23:48:26.427Z,72.22
2018-07-02T23:50:58.527Z,71.02
2018-07-02T23:53:30.596Z,70.52
2018-07-02T23:56:02.667Z,70.36
2018-07-02T23:58:34.775Z,70.54
